Time;durP1;ratioP1;P1;durP2;ratioP2;P2;SDS_P1;SDS_P2;PMS_P1;PMS_P2;Temp;Humidity;BMP_temperature;BMP_pressure;BME280_temperature;BME280_humidity;BME280_pressure;Samples;Min_cycle;Max_cycle;Signal;HPM_P1;HPM_P2
2022/01/09 00:00:49;;;;;;;1.23;1.00;;;6.90;85.50;;;7.40;57.70;96654.22;4936728;28;122234;-86
2022/01/09 00:03:16;;;;;;;1.00;0.90;;;6.90;85.80;;;7.41;58.34;96656.59;4945439;28;123816;-87
2022/01/09 00:05:42;;;;;;;1.27;1.10;;;7.00;86.50;;;7.40;58.05;96643.22;4949860;28;114242;-85
2022/01/09 00:08:09;;;;;;;1.40;1.07;;;6.90;86.40;;;7.40;58.40;96649.50;4950634;28;113647;-86
2022/01/09 00:10:36;;;;;;;2.30;1.00;;;7.60;87.10;;;7.40;58.64;96652.25;4952492;28;123754;-86
2022/01/09 00:13:03;;;;;;;1.40;0.83;;;6.90;86.80;;;7.39;59.26;96647.91;4950546;28;122986;-86
2022/01/09 00:15:30;;;;;;;1.00;0.90;;;6.90;87.30;;;7.39;59.01;96631.44;4952171;28;114199;-86
2022/01/09 00:17:56;;;;;;;1.40;1.07;;;6.90;87.50;;;7.39;59.13;96631.44;4958346;28;113724;-86
2022/01/09 00:20:23;;;;;;;1.10;0.90;;;6.90;87.40;;;7.42;59.04;96629.94;4953240;28;122945;-87
2022/01/09 00:22:51;;;;;;;0.90;0.90;;;6.90;87.50;;;7.44;59.65;96611.97;4929892;28;124239;-86
2022/01/09 00:25:21;;;;;;;1.00;0.90;;;6.90;88.00;;;7.46;59.52;96620.63;4955209;28;113212;-86
2022/01/09 00:27:49;;;;;;;1.03;0.93;;;7.10;88.00;;;7.45;60.09;96602.56;4970595;28;114082;-87
2022/01/09 00:30:19;;;;;;;1.30;1.10;;;7.00;88.30;;;7.46;59.58;96604.16;4953635;28;122261;-85
2022/01/09 00:32:46;;;;;;;1.20;0.90;;;7.00;88.40;;;7.45;59.81;96610.81;4940331;28;122427;-87
2022/01/09 00:35:14;;;;;;;2.27;0.90;;;7.00;88.60;;;7.45;60.89;96602.56;4970038;28;114201;-86
2022/01/09 00:37:42;;;;;;;1.10;1.00;;;7.50;90.00;;;7.42;60.56;96602.47;4938666;28;111844;-87
2022/01/09 00:40:11;;;;;;;1.10;1.00;;;6.90;89.70;;;7.38;60.93;96599.59;4947570;28;123986;-87
2022/01/09 00:42:38;;;;;;;1.73;0.87;;;6.90;90.00;;;7.34;60.94;96584.97;4973270;28;124158;-87
2022/01/09 00:45:08;;;;;;;1.27;1.17;;;6.90;89.90;;;7.33;61.65;96583.34;4971245;28;115379;-85
2022/01/09 00:47:35;;;;;;;1.03;0.93;;;6.80;90.20;;;7.30;61.56;96584.03;4972054;28;115185;-85
2022/01/09 00:50:04;;;;;;;1.30;0.90;;;5.50;89.30;;;7.28;61.39;96589.06;4970820;28;124059;-86
2022/01/09 00:52:30;;;;;;;1.07;0.97;;;6.80;90.40;;;7.25;62.38;96585.09;4971683;28;122411;-85
2022/01/09 00:54:57;;;;;;;0.80;0.80;;;6.80;90.60;;;7.22;62.34;96561.03;4970656;28;114369;-87
2022/01/09 00:57:24;;;;;;;0.93;0.80;;;6.70;90.60;;;7.19;62.02;96569.97;4968823;28;113354;-87
2022/01/09 00:59:50;;;;;;;1.20;0.80;;;7.20;90.80;;;7.15;62.03;96571.84;4946636;28;123384;-87
2022/01/09 01:02:18;;;;;;;0.83;0.83;;;6.70;90.70;;;7.15;62.85;96571.03;4952694;28;123687;-85
2022/01/09 01:04:45;;;;;;;1.27;0.80;;;6.70;90.90;;;7.11;62.55;96559.13;4955074;28;114179;-85
2022/01/09 01:07:12;;;;;;;0.80;0.80;;;6.70;91.00;;;7.10;62.72;96571.28;4949351;28;114185;-87
2022/01/09 01:09:39;;;;;;;0.80;0.80;;;6.60;90.90;;;7.08;63.56;96560.63;4946057;28;123709;-88
2022/01/09 01:12:07;;;;;;;0.90;0.77;;;6.60;91.10;;;7.10;63.15;96565.78;4949654;28;123774;-87
2022/01/09 01:14:36;;;;;;;1.30;0.97;;;6.60;91.10;;;7.08;63.23;96572.41;4951158;28;114449;-88
2022/01/09 01:17:04;;;;;;;0.80;0.77;;;6.60;91.30;;;7.08;63.30;96566.09;4962545;28;113483;-87
2022/01/09 01:19:30;;;;;;;1.30;0.87;;;6.60;91.40;;;7.07;63.06;96554.34;4969070;28;123135;-88
2022/01/09 01:21:58;;;;;;;2.50;0.90;;;6.60;91.30;;;7.07;63.70;96568.06;4958154;28;122913;-88
2022/01/09 01:24:25;;;;;;;0.90;0.80;;;6.60;91.30;;;7.12;63.37;96560.72;4956336;28;113095;-87
2022/01/09 01:26:53;;;;;;;0.80;0.70;;;6.60;91.40;;;7.11;63.45;96568.16;4954811;28;113010;-86
2022/01/09 01:29:19;;;;;;;0.80;0.70;;;6.60;91.40;;;7.13;63.47;96548.59;4962918;28;122954;-88
2022/01/09 01:31:46;;;;;;;0.80;0.80;;;6.70;91.40;;;7.14;63.79;96552.94;4967467;28;123752;-86
2022/01/09 01:34:14;;;;;;;0.80;0.70;;;6.60;91.50;;;7.13;63.37;96557.63;4969099;28;114432;-88
2022/01/09 01:36:41;;;;;;;0.80;0.80;;;6.60;91.50;;;7.13;63.36;96540.38;4968928;28;114679;-86
2022/01/09 01:39:07;;;;;;;0.80;0.80;;;6.70;91.50;;;7.13;63.80;96562.34;4973866;28;124380;-87
2022/01/09 01:41:34;;;;;;;1.63;0.80;;;6.70;91.50;;;7.14;63.33;96558.44;4968009;28;122836;-86
2022/01/09 01:44:03;;;;;;;0.80;0.80;;;6.70;91.80;;;7.14;63.44;96558.44;4971394;28;112964;-88
2022/01/09 01:46:30;;;;;;;0.80;0.80;;;6.70;91.70;;;7.14;64.00;96547.44;4955013;28;112822;-87
2022/01/09 01:48:56;;;;;;;1.10;0.80;;;6.70;91.70;;;7.16;63.24;96550.66;4968671;28;124023;-87
2022/01/09 01:51:27;;;;;;;0.80;0.70;;;6.70;91.70;;;7.17;64.12;96547.56;4961558;28;123087;-86
2022/01/09 01:53:55;;;;;;;0.80;0.70;;;6.70;91.80;;;7.19;64.28;96538.97;4968535;28;112692;-87
2022/01/09 01:56:23;;;;;;;0.70;0.70;;;6.70;91.80;;;7.22;63.87;96546.53;4950587;28;113409;-87
2022/01/09 01:58:53;;;;;;;0.90;0.80;;;6.70;91.70;;;7.24;63.58;96547.78;4945441;28;123330;-86
2022/01/09 02:01:20;;;;;;;0.87;0.70;;;6.70;91.80;;;7.24;63.44;96544.25;4952204;28;122319;-87
2022/01/09 02:03:46;;;;;;;0.70;0.70;;;6.70;91.80;;;7.26;63.37;96550.19;4950894;28;113395;-87
2022/01/09 02:06:17;;;;;;;0.80;0.80;;;6.80;91.80;;;7.24;63.89;96536.78;4945903;28;113316;-86
2022/01/09 02:08:44;;;;;;;1.90;0.70;;;6.80;91.80;;;7.24;64.03;96536.00;4944995;28;124363;-86
2022/01/09 02:11:11;;;;;;;0.90;0.80;;;6.80;91.70;;;7.26;63.49;96544.69;4949733;28;123651;-86
2022/01/09 02:13:40;;;;;;;0.73;0.70;;;6.80;91.70;;;7.29;63.41;96538.50;4951708;28;113657;-85
2022/01/09 02:16:16;;;;;;;0.80;0.70;;;6.80;91.70;;;7.30;63.75;96546.38;4953987;28;114118;-86
2022/01/09 02:18:45;;;;;;;0.80;0.80;;;6.80;91.70;;;7.32;63.58;96545.25;4950119;28;124252;-87
2022/01/09 02:21:13;;;;;;;0.80;0.80;;;6.80;91.60;;;7.34;63.71;96545.72;4945033;28;123619;-86
2022/01/09 02:23:45;;;;;;;0.80;0.70;;;6.80;91.70;;;7.33;63.39;96561.38;4942701;28;115478;-86
2022/01/09 02:26:19;;;;;;;0.90;0.80;;;6.90;91.80;;;7.33;63.10;96557.84;4949409;28;114180;-87
2022/01/09 02:28:47;;;;;;;0.77;0.77;;;6.80;91.70;;;7.31;63.95;96558.19;4980950;28;123874;-87
2022/01/09 02:31:15;;;;;;;0.80;0.80;;;6.80;91.80;;;7.30;63.50;96557.38;4983525;28;122672;-86
2022/01/09 02:33:42;;;;;;;0.90;0.77;;;6.80;91.80;;;7.28;63.47;96551.44;4950835;28;113399;-85
2022/01/09 02:36:09;;;;;;;0.80;0.80;;;6.80;91.70;;;7.27;63.86;96558.06;4944825;28;113085;-87
2022/01/09 02:38:36;;;;;;;0.80;0.80;;;6.90;91.80;;;7.26;63.59;96555.69;4944280;28;123029;-87
2022/01/09 02:41:03;;;;;;;0.80;0.80;;;6.80;91.80;;;7.26;64.08;96569.41;4949406;28;124665;-87
2022/01/09 02:43:30;;;;;;;0.80;0.80;;;6.80;91.90;;;7.27;63.96;96562.75;4951419;28;114315;-86
2022/01/09 02:46:11;;;;;;;0.77;0.77;;;6.80;91.90;;;7.28;63.84;96564.34;4943459;28;113355;-87
2022/01/09 02:48:39;;;;;;;1.27;0.90;;;6.80;91.80;;;7.26;63.57;96539.22;4954673;28;123656;-85
2022/01/09 02:51:16;;;;;;;1.00;0.90;;;7.20;92.00;;;7.29;63.76;96535.75;4935498;28;123239;-88
2022/01/09 02:53:47;;;;;;;1.10;0.90;;;7.10;91.90;;;7.30;63.87;96551.09;4935110;28;114206;-86
2022/01/09 02:56:15;;;;;;;0.80;0.70;;;6.90;91.80;;;7.34;63.17;96563.00;4946730;28;113094;-86
2022/01/09 02:58:44;;;;;;;0.80;0.77;;;6.90;91.80;;;7.37;63.29;96573.28;4950828;28;122254;-86
2022/01/09 03:01:12;;;;;;;0.80;0.80;;;5.40;91.10;;;7.36;63.39;96562.63;4957967;28;123794;-86
2022/01/09 03:03:39;;;;;;;0.80;0.80;;;7.00;91.80;;;7.37;63.51;96565.03;4940280;28;113339;-87
2022/01/09 03:06:08;;;;;;;0.70;0.70;;;6.90;91.70;;;7.36;63.61;96577.19;4941304;28;113958;-87
2022/01/09 03:08:35;;;;;;;1.07;0.97;;;6.90;91.70;;;7.35;63.50;96589.31;4936365;28;123056;-86
2022/01/09 03:11:02;;;;;;;0.80;0.70;;;7.00;91.70;;;7.34;63.41;96571.22;4952829;28;123857;-85
2022/01/09 03:13:29;;;;;;;0.93;0.80;;;6.90;91.70;;;7.34;63.49;96568.47;4958183;28;114099;-86
2022/01/09 03:15:55;;;;;;;0.80;0.73;;;6.90;91.70;;;7.34;63.52;96575.94;4948477;28;116238;-87
2022/01/09 03:18:22;;;;;;;0.70;0.70;;;6.90;91.80;;;7.34;63.31;96576.72;4950323;28;122165;-87
2022/01/09 03:20:50;;;;;;;1.13;0.80;;;6.80;91.70;;;7.32;62.96;96581.75;4946252;28;123913;-86
2022/01/09 03:23:17;;;;;;;0.93;0.80;;;6.80;92.00;;;7.32;63.14;96592.75;4950228;28;113885;-86
2022/01/09 03:25:43;;;;;;;1.83;0.90;;;6.80;91.70;;;7.29;63.22;96587.94;4950124;28;113736;-86
2022/01/09 03:28:11;;;;;;;0.90;0.90;;;6.80;91.70;;;7.27;63.36;96584.72;4942923;28;123949;-87
2022/01/09 03:30:37;;;;;;;1.00;0.80;;;6.80;91.70;;;7.26;63.95;96594.13;4948399;28;123461;-88
2022/01/09 03:33:04;;;;;;;1.40;1.00;;;6.80;91.70;;;7.26;64.09;96591.38;4954345;28;113452;-87
2022/01/09 03:35:32;;;;;;;0.80;0.73;;;6.80;91.80;;;7.23;63.51;96581.09;4954433;28;113904;-86
2022/01/09 03:37:58;;;;;;;0.77;0.70;;;6.80;91.90;;;7.21;63.98;96595.16;4947791;28;124040;-87
2022/01/09 03:40:28;;;;;;;0.90;0.80;;;6.80;91.90;;;7.20;64.51;96606.47;4952704;28;123701;-86
2022/01/09 03:42:55;;;;;;;0.80;0.80;;;7.10;92.10;;;7.21;64.27;96597.13;4948803;28;114111;-87
2022/01/09 03:45:24;;;;;;;0.90;0.90;;;6.80;92.00;;;7.22;64.26;96593.22;4947466;28;113259;-86
2022/01/09 03:47:54;;;;;;;0.80;0.80;;;6.80;92.00;;;7.22;64.05;96602.25;4946752;28;122937;-87
2022/01/09 03:50:20;;;;;;;0.90;0.80;;;6.90;92.00;;;7.23;64.32;96616.81;4936862;28;122807;-87
2022/01/09 03:53:07;;;;;;;0.80;0.80;;;6.80;92.00;;;7.23;63.62;96594.81;4947612;28;114328;-85
2022/01/09 03:55:33;;;;;;;1.00;0.90;;;6.80;92.00;;;7.22;64.30;96601.44;4949906;28;113934;-86
2022/01/09 03:57:59;;;;;;;0.80;0.70;;;6.80;92.00;;;7.21;64.04;96605.34;4951916;28;124085;-87
2022/01/09 04:00:26;;;;;;;0.80;0.80;;;6.80;92.00;;;7.22;64.05;96604.19;4967203;28;123939;-86
2022/01/09 04:02:54;;;;;;;0.80;0.80;;;6.80;92.10;;;7.23;64.02;96605.81;4969250;28;115229;-85
2022/01/09 04:05:21;;;;;;;0.90;0.80;;;6.80;92.20;;;7.24;64.20;96612.91;4950939;28;114826;-88
2022/01/09 04:07:48;;;;;;;1.10;0.80;;;6.80;92.20;;;7.23;64.50;96619.53;4942086;28;124169;-87
2022/01/09 04:10:19;;;;;;;1.10;0.80;;;6.80;92.20;;;7.19;64.69;96626.84;4933430;28;123205;-87
2022/01/09 04:12:51;;;;;;;0.80;0.70;;;6.80;92.30;;;7.14;64.40;96630.63;4946246;28;114180;-87
2022/01/09 04:15:18;;;;;;;0.80;0.80;;;7.00;92.40;;;7.12;65.33;96626.63;4964142;28;112246;-88
2022/01/09 04:17:52;;;;;;;0.80;0.77;;;7.20;92.60;;;7.11;65.07;96636.00;4950687;28;123445;-86
2022/01/09 04:20:27;;;;;;;0.80;0.80;;;6.70;92.40;;;7.11;65.61;96627.78;4935812;28;124436;-86
2022/01/09 04:22:55;;;;;;;1.17;0.73;;;6.70;92.50;;;7.08;64.80;96641.03;4985197;28;114514;-87
2022/01/09 04:25:22;;;;;;;1.40;0.80;;;6.70;92.50;;;7.11;65.28;96650.53;4983032;28;112986;-87
2022/01/09 04:27:50;;;;;;;0.80;0.70;;;6.70;92.50;;;7.13;65.14;96650.22;4958944;28;123850;-86
2022/01/09 04:30:18;;;;;;;0.80;0.70;;;6.70;92.50;;;7.15;65.50;96654.22;4951120;28;122937;-86
2022/01/09 04:32:46;;;;;;;0.80;0.80;;;6.70;92.50;;;7.19;65.09;96665.31;4949369;28;113574;-85
2022/01/09 04:35:14;;;;;;;1.57;0.90;;;6.80;92.60;;;7.19;65.06;96668.84;4934414;28;113962;-86
2022/01/09 04:37:41;;;;;;;1.10;0.80;;;6.80;92.60;;;7.20;65.44;96669.63;4954225;28;124343;-87
2022/01/09 04:40:12;;;;;;;1.10;1.00;;;6.80;92.60;;;7.20;65.35;96689.69;4949879;28;122797;-87
2022/01/09 04:42:43;;;;;;;0.87;0.80;;;6.80;92.60;;;7.20;64.94;96691.59;4949829;28;114773;-85
2022/01/09 04:45:12;;;;;;;1.27;0.83;;;6.80;92.80;;;7.18;65.61;96710.41;4934608;28;113119;-87
2022/01/09 04:47:44;;;;;;;1.00;0.80;;;6.80;92.80;;;7.15;65.65;96709.13;4955022;28;124169;-87
2022/01/09 04:50:16;;;;;;;1.00;0.87;;;6.70;92.90;;;7.10;65.43;96727.78;4956859;28;122912;-86
2022/01/09 04:52:43;;;;;;;1.17;0.90;;;6.70;93.00;;;7.02;66.26;96734.97;4937224;28;114745;-87
2022/01/09 04:55:12;;;;;;;0.90;0.80;;;6.60;93.00;;;6.96;66.07;96763.75;4949407;28;114295;-85
2022/01/09 04:57:39;;;;;;;0.80;0.80;;;6.70;93.10;;;6.91;66.08;96781.25;4981788;28;123602;-86
2022/01/09 05:00:07;;;;;;;1.10;0.70;;;6.50;93.10;;;6.85;66.15;96777.09;4949468;28;123796;-86
2022/01/09 05:02:35;;;;;;;0.90;0.80;;;6.50;93.00;;;6.81;65.68;96776.19;4955274;28;113574;-87
2022/01/09 05:05:04;;;;;;;0.90;0.80;;;6.50;93.00;;;6.76;65.56;96785.44;4949831;28;114703;-87
2022/01/09 05:07:31;;;;;;;0.80;0.80;;;6.40;92.90;;;6.73;66.02;96790.81;4935819;28;122305;-87
2022/01/09 05:09:57;;;;;;;0.80;0.80;;;6.40;92.90;;;6.67;66.10;96812.16;4946421;28;123742;-86
2022/01/09 05:12:24;;;;;;;0.80;0.80;;;6.30;92.80;;;6.61;65.47;96808.81;4951278;28;112746;-87
2022/01/09 05:14:50;;;;;;;1.03;0.73;;;6.60;93.20;;;6.57;65.78;96807.88;4966901;28;113019;-87
2022/01/09 05:17:18;;;;;;;0.80;0.80;;;6.20;92.80;;;6.52;65.61;96829.22;4958780;28;122914;-87
2022/01/09 05:19:47;;;;;;;1.00;0.80;;;6.20;92.80;;;6.48;66.15;96828.31;4966321;28;121965;-86
2022/01/09 05:22:14;;;;;;;0.80;0.70;;;6.60;93.00;;;6.43;66.31;96836.72;4954952;28;114164;-86
2022/01/09 05:24:41;;;;;;;0.80;0.80;;;6.20;92.90;;;6.38;65.90;96856.91;4957794;28;113280;-87
2022/01/09 05:27:08;;;;;;;1.10;0.80;;;6.00;92.80;;;6.33;66.05;96870.81;4952898;28;123825;-87
2022/01/09 05:29:36;;;;;;;0.70;0.70;;;6.00;92.70;;;6.30;65.76;96912.63;4950571;28;124013;-88
2022/01/09 05:32:03;;;;;;;0.80;0.70;;;6.00;92.70;;;6.23;65.79;96876.69;4935309;28;112321;-87
2022/01/09 05:34:29;;;;;;;1.00;0.90;;;5.90;92.70;;;6.18;65.95;96883.97;4959824;28;113730;-86
2022/01/09 05:36:58;;;;;;;0.77;0.70;;;5.90;92.80;;;6.15;65.92;96886.56;4950846;28;124174;-87
2022/01/09 05:39:24;;;;;;;0.80;0.80;;;5.80;92.70;;;6.13;65.75;96908.84;4950645;28;122931;-86
2022/01/09 05:41:51;;;;;;;0.80;0.80;;;5.80;92.80;;;6.09;65.84;96924.31;4956449;28;114372;-86
2022/01/09 05:44:19;;;;;;;0.80;0.80;;;5.70;92.80;;;6.03;66.11;96922.91;4954187;28;114405;-87
2022/01/09 05:46:47;;;;;;;0.90;0.70;;;5.70;92.80;;;5.99;66.18;96932.91;4954139;28;123225;-87
2022/01/09 05:49:13;;;;;;;1.27;0.80;;;5.80;92.80;;;5.97;66.41;96935.19;4955718;28;122117;-86
2022/01/09 05:51:59;;;;;;;0.93;0.83;;;5.60;92.80;;;5.96;66.69;96967.28;4958069;28;113619;-87
2022/01/09 05:54:25;;;;;;;1.63;0.80;;;5.60;92.90;;;5.91;66.27;96970.19;4941283;28;113832;-87
2022/01/09 05:57:48;;;;;;;0.80;0.80;;;5.60;92.90;;;5.90;66.18;96968.53;4949918;28;122359;-87
2022/01/09 06:00:33;;;;;;;0.77;0.77;;;5.60;93.00;;;5.83;66.66;96978.41;4944147;28;123613;-87
2022/01/09 06:02:59;;;;;;;1.10;0.80;;;5.50;93.00;;;5.76;66.17;96990.66;4946173;28;113950;-88
2022/01/09 06:05:27;;;;;;;1.10;0.80;;;5.80;93.20;;;5.74;66.89;96994.88;4942020;28;113455;-88
2022/01/09 06:08:46;;;;;;;2.43;0.90;;;5.40;93.00;;;5.75;66.96;97008.25;4949845;28;124841;-87
2022/01/09 06:11:50;;;;;;;1.20;0.80;;;5.40;93.10;;;5.72;66.17;97008.91;4938796;28;123758;-88
2022/01/09 06:14:17;;;;;;;1.20;1.00;;;5.40;93.10;;;5.70;67.22;97002.94;4948896;28;114332;-87
2022/01/09 06:16:43;;;;;;;1.70;0.90;;;5.40;93.10;;;5.73;67.30;97026.16;4982068;28;113751;-87
2022/01/09 06:19:30;;;;;;;1.30;1.20;;;5.40;93.10;;;5.79;66.46;97026.78;4937871;28;123638;-87
2022/01/09 06:21:56;;;;;;;2.07;1.10;;;5.40;93.20;;;5.78;66.91;97033.38;4949745;28;123957;-87
2022/01/09 06:24:24;;;;;;;4.80;1.07;;;5.50;93.30;;;5.78;66.40;97038.84;4956833;28;113976;-87
2022/01/09 06:27:09;;;;;;;1.43;1.00;;;5.40;93.20;;;5.80;67.09;97037.41;4949802;28;113105;-87
2022/01/09 06:29:36;;;;;;;1.00;0.90;;;5.40;93.20;;;5.79;67.02;97059.66;4954448;28;123951;-86
2022/01/09 06:32:22;;;;;;;1.73;1.00;;;5.40;93.30;;;5.81;66.52;97058.22;4957682;28;122954;-87
2022/01/09 06:34:49;;;;;;;1.00;0.90;;;5.40;93.30;;;5.78;67.01;97063.50;4955052;28;114943;-87
2022/01/09 06:37:20;;;;;;;0.90;0.80;;;5.40;93.30;;;5.76;66.68;97067.41;4943206;28;114907;-86
2022/01/09 06:39:46;;;;;;;1.63;1.20;;;5.40;93.30;;;5.74;67.66;97069.66;4948991;28;123753;-87
2022/01/09 06:42:13;;;;;;;1.10;0.90;;;5.40;93.30;;;5.74;66.70;97083.34;4952061;28;123818;-86
2022/01/09 06:44:40;;;;;;;1.00;0.90;;;5.40;93.40;;;5.74;66.50;97083.34;4951695;28;113504;-87
2022/01/09 06:47:08;;;;;;;6.13;0.90;;;5.40;93.40;;;5.75;67.79;97093.19;4951808;28;113513;-86
2022/01/09 06:49:35;;;;;;;1.33;1.00;;;5.40;93.40;;;5.74;67.22;97097.03;4949902;28;124215;-87
2022/01/09 06:52:04;;;;;;;1.53;1.00;;;5.40;93.40;;;5.72;66.78;97099.31;4948912;28;124055;-87
2022/01/09 06:54:31;;;;;;;1.23;0.90;;;5.40;93.40;;;5.74;67.11;97109.94;4952991;28;114228;-86
2022/01/09 06:57:16;;;;;;;1.20;0.83;;;5.40;93.40;;;5.80;66.98;97116.06;4950155;28;113995;-87
2022/01/09 06:59:43;;;;;;;1.00;0.90;;;5.40;93.40;;;5.77;66.98;97128.47;4940004;28;124256;-87
2022/01/09 07:02:11;;;;;;;1.10;0.90;;;5.50;93.40;;;5.76;66.57;97132.34;4950230;28;122779;-87
2022/01/09 07:04:38;;;;;;;1.93;1.20;;;5.40;93.40;;;5.73;67.01;97139.28;4949033;28;112506;-86
2022/01/09 07:07:06;;;;;;;1.10;0.90;;;5.40;93.40;;;5.70;67.88;97148.16;4948363;28;113018;-87
2022/01/09 07:09:32;;;;;;;1.03;0.93;;;5.80;93.60;;;5.70;67.79;97147.34;4946492;28;123923;-87
2022/01/09 07:12:01;;;;;;;1.00;0.90;;;5.30;93.40;;;5.72;67.44;97143.16;4947466;28;123928;-87
2022/01/09 07:14:27;;;;;;;0.90;0.80;;;5.30;93.50;;;5.76;66.96;97152.34;4933130;28;113998;-88
2022/01/09 07:16:54;;;;;;;3.57;0.80;;;5.40;93.50;;;5.81;66.91;97153.31;4942969;28;113232;-86
2022/01/09 07:19:20;;;;;;;1.20;1.00;;;5.40;93.50;;;5.82;66.90;97163.94;4950065;28;123152;-87
2022/01/09 07:21:47;;;;;;;7.40;2.07;;;5.40;93.50;;;5.81;66.72;97165.09;4949748;28;123121;-86
2022/01/09 07:24:13;;;;;;;1.53;1.00;;;5.40;93.50;;;5.81;67.00;97172.50;4943712;28;115032;-86
2022/01/09 07:26:41;;;;;;;1.67;1.00;;;5.40;93.40;;;5.83;66.65;97170.22;4949096;28;114868;-86
2022/01/09 07:29:07;;;;;;;1.50;1.30;;;5.40;93.40;;;5.84;67.05;97183.63;4948802;28;123590;-87
2022/01/09 07:31:34;;;;;;;5.60;1.60;;;5.40;93.40;;;5.89;66.88;97179.94;4944040;28;123658;-88
2022/01/09 07:34:00;;;;;;;1.47;1.27;;;5.50;93.40;;;5.88;66.14;97195.53;4942106;28;113475;-85
2022/01/09 07:36:26;;;;;;;2.27;1.10;;;5.50;93.40;;;5.89;66.66;97190.88;4952129;28;113813;-86
2022/01/09 07:38:55;;;;;;;3.00;1.20;;;6.00;93.50;;;5.91;66.15;97191.34;4951030;28;123934;-85
2022/01/09 07:41:22;;;;;;;4.53;1.40;;;5.60;93.30;;;5.92;66.84;97202.00;4949026;28;122921;-86
2022/01/09 07:43:49;;;;;;;6.30;1.60;;;5.50;93.20;;;5.92;66.20;97191.03;4947880;28;114143;-87
2022/01/09 07:46:16;;;;;;;3.40;1.40;;;5.50;93.10;;;5.89;66.65;97210.06;4950075;28;114075;-86
2022/01/09 07:48:42;;;;;;;2.47;1.30;;;5.50;93.00;;;5.89;65.89;97223.78;4952935;28;123411;-85
2022/01/09 07:51:10;;;;;;;4.83;1.50;;;5.50;92.90;;;5.84;65.48;97221.19;4946555;28;123064;-85
2022/01/09 07:53:36;;;;;;;3.33;1.30;;;5.50;92.70;;;5.83;65.43;97241.47;4953364;28;113119;-86
2022/01/09 07:56:05;;;;;;;5.20;1.80;;;5.40;92.70;;;5.81;65.55;97241.03;4949058;28;113265;-86
2022/01/09 07:58:33;;;;;;;5.27;1.60;;;5.40;92.60;;;5.81;65.49;97254.72;4950564;28;124004;-87
2022/01/09 08:01:01;;;;;;;4.27;1.87;;;5.40;92.50;;;5.80;65.59;97275.00;4958348;28;123104;-86
2022/01/09 08:03:28;;;;;;;8.83;1.97;;;5.40;92.40;;;5.80;65.85;97259.38;4950867;28;113407;-87
2022/01/09 08:05:57;;;;;;;6.93;1.50;;;5.40;92.40;;;5.83;64.45;97285.34;4956650;28;114245;-87
2022/01/09 08:08:23;;;;;;;12.93;1.50;;;5.40;92.40;;;5.82;64.90;97278.25;4957326;28;124354;-83
2022/01/09 08:10:51;;;;;;;5.47;1.50;;;5.40;92.20;;;5.83;65.09;97282.59;4957845;28;122675;-87
2022/01/09 08:13:18;;;;;;;4.50;1.67;;;5.40;92.20;;;5.84;65.08;97292.44;4955952;28;115468;-86
2022/01/09 08:15:46;;;;;;;3.53;1.53;;;5.40;92.10;;;5.87;64.94;97289.06;4949003;28;116217;-87
2022/01/09 08:18:13;;;;;;;4.87;1.70;;;5.50;92.10;;;5.88;64.04;97293.41;4949558;28;124180;-87
2022/01/09 08:20:40;;;;;;;2.23;1.30;;;5.50;92.00;;;5.90;63.46;97324.84;4953279;28;123265;-86
2022/01/09 08:23:07;;;;;;;3.77;1.70;;;5.50;91.70;;;5.89;63.26;97306.00;4950274;28;113092;-87
2022/01/09 08:25:33;;;;;;;2.43;1.53;;;5.80;91.40;;;5.88;63.04;97310.66;4951119;28;114176;-87
2022/01/09 08:28:00;;;;;;;9.23;1.97;;;6.40;91.70;;;5.91;62.59;97303.72;4945269;28;125025;-86
2022/01/09 08:30:26;;;;;;;7.03;1.90;;;5.50;91.20;;;5.93;62.55;97312.44;4965670;28;122648;-86
2022/01/09 08:32:53;;;;;;;7.83;1.80;;;6.00;91.30;;;5.95;62.46;97310.25;4930696;28;113174;-86
2022/01/09 08:35:21;;;;;;;9.67;1.90;;;5.80;91.10;;;5.99;62.49;97313.94;4950301;28;113186;-86
2022/01/09 08:37:48;;;;;;;6.30;1.70;;;5.60;90.90;;;6.01;62.22;97325.41;4980950;28;124107;-87
2022/01/09 08:40:22;;;;;;;6.17;2.40;;;5.70;90.90;;;6.03;62.19;97334.13;4948274;28;123884;-87
2022/01/09 08:42:53;;;;;;;3.37;1.60;;;5.60;90.80;;;6.05;61.18;97333.81;4949364;28;113197;-85
2022/01/09 08:45:20;;;;;;;5.73;1.57;;;5.90;90.70;;;6.04;61.27;97332.97;4949405;28;113950;-87
2022/01/09 08:47:46;;;;;;;2.50;1.70;;;5.60;90.30;;;6.05;60.76;97337.34;4947171;28;124280;-88
2022/01/09 08:50:18;;;;;;;3.63;1.70;;;5.60;90.20;;;6.05;60.82;97342.84;4963291;28;121636;-87
2022/01/09 08:52:45;;;;;;;8.77;2.10;;;5.60;90.00;;;6.05;60.42;97353.81;4952780;28;112824;-87
2022/01/09 08:55:13;;;;;;;3.80;1.43;;;5.70;90.00;;;6.06;60.17;97371.88;4948364;28;113913;-87
2022/01/09 08:57:40;;;;;;;2.93;1.70;;;6.00;90.00;;;6.06;60.54;97363.63;4954629;28;124173;-87
2022/01/09 09:00:08;;;;;;;8.90;2.07;;;5.70;89.30;;;6.08;59.34;97383.31;4950262;28;123640;-87
2022/01/09 09:02:35;;;;;;;6.43;2.17;;;5.70;89.20;;;6.10;59.88;97361.06;4980534;28;114883;-88
2022/01/09 09:05:01;;;;;;;3.77;1.77;;;5.70;89.20;;;6.13;59.55;97368.69;4947348;28;114072;-87
2022/01/09 09:07:28;;;;;;;4.10;1.60;;;5.70;88.70;;;6.16;59.30;97384.47;4949303;28;124005;-88
2022/01/09 09:09:54;;;;;;;5.87;1.73;;;5.70;88.40;;;6.17;59.23;97377.88;4959781;28;120704;-88
2022/01/09 09:12:21;;;;;;;6.93;2.03;;;5.80;88.10;;;6.18;58.99;97390.47;4951005;28;114085;-86
2022/01/09 09:14:48;;;;;;;3.47;1.77;;;6.30;88.40;;;6.22;59.04;97398.84;4947746;28;113647;-87
2022/01/09 09:17:15;;;;;;;9.27;2.13;;;5.80;88.20;;;6.25;58.72;97400.97;4952923;28;123991;-87
2022/01/09 09:19:43;;;;;;;5.13;2.03;;;5.80;88.00;;;6.27;59.39;97415.97;4950248;28;123813;-86
2022/01/09 09:22:10;;;;;;;3.57;1.57;;;5.90;88.20;;;6.29;59.39;97407.44;4954305;28;114220;-85
2022/01/09 09:24:37;;;;;;;5.97;1.87;;;5.90;88.40;;;6.32;59.50;97406.78;4949005;28;113831;-86
2022/01/09 09:27:05;;;;;;;4.10;1.73;;;5.90;88.60;;;6.34;59.31;97415.47;4964230;28;123407;-86
2022/01/09 09:29:32;;;;;;;6.10;1.93;;;5.90;88.80;;;6.35;59.34;97422.59;4930943;28;123090;-87
2022/01/09 09:31:59;;;;;;;3.93;2.03;;;6.00;89.00;;;6.36;59.80;97414.03;4938601;28;112748;-86
2022/01/09 09:34:26;;;;;;;7.50;1.87;;;6.30;89.40;;;6.42;59.89;97414.69;4948138;28;113035;-85
2022/01/09 09:36:53;;;;;;;3.50;1.90;;;6.10;89.30;;;6.45;60.34;97438.78;4953807;28;124501;-87
2022/01/09 09:39:41;;;;;;;2.50;1.40;;;6.00;89.40;;;6.48;60.69;97434.59;4949904;28;123291;-87
2022/01/09 09:42:12;;;;;;;6.17;2.10;;;6.00;89.50;;;6.47;60.17;97441.97;4979127;28;114435;-87
2022/01/09 09:44:39;;;;;;;5.87;2.13;;;6.00;89.70;;;6.41;61.02;97452.31;4950176;28;114350;-88
2022/01/09 09:47:09;;;;;;;6.20;2.00;;;6.00;90.00;;;6.36;60.83;97435.19;4950618;28;123764;-87
2022/01/09 09:49:36;;;;;;;4.87;1.87;;;6.00;90.20;;;6.31;61.66;97438.06;4947837;28;124098;-87
2022/01/09 09:52:06;;;;;;;7.23;1.87;;;5.90;90.30;;;6.27;61.73;97439.84;4951974;28;114375;-87
2022/01/09 09:54:53;;;;;;;6.27;2.13;;;5.90;90.60;;;6.19;62.22;97436.75;4950691;28;114362;-88
2022/01/09 09:57:22;;;;;;;7.50;1.90;;;5.80;90.70;;;6.15;62.67;97446.75;4946993;28;123348;-88
2022/01/09 10:00:09;;;;;;;11.80;2.50;;;5.90;90.80;;;6.19;62.14;97436.75;4948540;28;123400;-88
2022/01/09 10:02:57;;;;;;;6.80;1.77;;;5.80;90.80;;;6.23;62.18;97436.91;4949269;28;112698;-88
2022/01/09 10:05:34;;;;;;;6.53;2.00;;;5.80;90.90;;;6.26;61.89;97430.00;4945851;28;113701;-87
2022/01/09 10:08:15;;;;;;;4.07;2.07;;;5.80;90.90;;;6.26;62.23;97443.69;4934012;28;123645;-87
2022/01/09 10:10:44;;;;;;;4.03;1.60;;;5.80;90.90;;;6.27;62.61;97442.59;4938912;28;122473;-86
2022/01/09 10:13:17;;;;;;;12.10;2.10;;;5.90;90.90;;;6.32;62.38;97442.44;4955642;28;113436;-87
2022/01/09 10:16:02;;;;;;;4.93;2.00;;;5.90;91.00;;;6.37;62.33;97442.31;4944125;28;112242;-86
2022/01/09 10:18:48;;;;;;;4.17;2.27;;;5.90;91.10;;;6.41;62.46;97454.25;4965190;28;123742;-87
2022/01/09 10:21:54;;;;;;;3.27;1.67;;;6.00;91.10;;;6.43;62.26;97462.16;4966109;28;121946;-87
2022/01/09 10:24:23;;;;;;;4.07;2.40;;;6.00;91.00;;;6.41;62.62;97455.03;4954597;28;112555;-85
2022/01/09 10:26:50;;;;;;;4.53;2.10;;;6.00;91.10;;;6.41;62.91;97448.75;4949047;28;113880;-83
2022/01/09 10:29:20;;;;;;;3.70;2.30;;;6.10;91.20;;;6.43;63.30;97434.72;4946880;28;123942;-83
2022/01/09 10:31:51;;;;;;;3.73;1.50;;;6.00;91.20;;;6.44;62.71;97448.13;4947606;28;122961;-85
2022/01/09 10:34:18;;;;;;;4.23;1.60;;;6.00;91.20;;;6.48;62.69;97449.09;4948219;28;114888;-84